Time;durP1;ratioP1;P1;durP2;ratioP2;P2;SDS_P1;SDS_P2;PMS_P1;PMS_P2;Temp;Humidity;BMP_temperature;BMP_pressure;BME280_temperature;BME280_humidity;BME280_pressure;Samples;Min_cycle;Max_cycle;Signal;HPM_P1;HPM_P2
2023/10/15 00:00:59;;;;;;;2.83;1.37;;;24.40;74.80;;;;;;5035987;28;20545;-83
2023/10/15 00:03:25;;;;;;;3.10;1.53;;;24.40;74.80;;;;;;5036103;28;20572;-83
2023/10/15 00:05:52;;;;;;;1.60;1.50;;;24.30;74.70;;;;;;5036026;28;20445;-83
2023/10/15 00:08:19;;;;;;;2.37;1.57;;;24.30;75.60;;;;;;5036024;28;20434;-83
2023/10/15 00:10:46;;;;;;;1.77;1.30;;;24.30;74.70;;;;;;5035934;28;20501;-84
2023/10/15 00:13:14;;;;;;;2.23;1.70;;;24.30;74.70;;;;;;5035923;28;20430;-87
2023/10/15 00:15:43;;;;;;;2.23;1.30;;;24.40;74.80;;;;;;5035877;28;20541;-83
2023/10/15 00:18:10;;;;;;;2.47;1.13;;;24.30;74.60;;;;;;5035870;28;20857;-87
2023/10/15 00:20:40;;;;;;;1.67;1.47;;;24.30;74.70;;;;;;5035737;28;20434;-84
2023/10/15 00:23:07;;;;;;;1.80;1.30;;;24.30;74.70;;;;;;5035713;28;20529;-83
2023/10/15 00:25:38;;;;;;;1.47;1.10;;;24.30;74.70;;;;;;5035561;28;20445;-84
2023/10/15 00:28:09;;;;;;;1.47;1.37;;;24.30;74.60;;;;;;5035634;28;20445;-84
2023/10/15 00:30:37;;;;;;;1.97;1.20;;;24.30;74.60;;;;;;5035553;28;20442;-84
2023/10/15 00:33:06;;;;;;;2.13;1.60;;;24.30;74.60;;;;;;5035465;28;20442;-83
2023/10/15 00:35:34;;;;;;;1.97;1.17;;;24.30;74.70;;;;;;5035336;28;20444;-84
2023/10/15 00:38:07;;;;;;;1.60;1.50;;;24.30;74.60;;;;;;5035548;28;20442;-84
2023/10/15 00:40:37;;;;;;;2.40;1.20;;;24.30;74.50;;;;;;5035470;28;20493;-84
2023/10/15 00:43:03;;;;;;;2.10;1.27;;;24.30;74.60;;;;;;5035403;28;20643;-86
2023/10/15 00:45:35;;;;;;;1.70;1.40;;;24.20;74.40;;;;;;5035225;28;20482;-84
2023/10/15 00:48:07;;;;;;;1.60;1.10;;;24.20;74.30;;;;;;5035348;28;20514;-84
2023/10/15 00:50:38;;;;;;;1.93;1.13;;;24.20;74.40;;;;;;5035369;28;20438;-84
2023/10/15 00:53:21;;;;;;;2.03;1.33;;;24.30;74.50;;;;;;5035136;28;21111;-83
2023/10/15 00:55:49;;;;;;;3.20;1.43;;;24.30;74.60;;;;;;5035049;28;20442;-84
2023/10/15 00:58:21;;;;;;;3.37;1.60;;;24.30;74.60;;;;;;5034835;28;20462;-84
2023/10/15 01:00:53;;;;;;;1.87;1.13;;;24.20;74.40;;;;;;5034920;28;20459;-84
2023/10/15 01:03:30;;;;;;;2.07;1.37;;;24.30;74.60;;;;;;5034965;28;20898;-87
2023/10/15 01:06:04;;;;;;;1.83;1.37;;;24.20;74.40;;;;;;5033800;28;20520;-87
2023/10/15 01:08:35;;;;;;;2.13;1.30;;;24.20;74.40;;;;;;5034873;28;20484;-84
2023/10/15 01:11:09;;;;;;;1.70;1.10;;;24.20;74.30;;;;;;5034896;28;20434;-86
2023/10/15 01:13:36;;;;;;;1.77;1.10;;;24.20;74.40;;;;;;5034704;28;20937;-84
2023/10/15 01:16:05;;;;;;;2.47;1.33;;;24.20;74.40;;;;;;5034625;28;20465;-84
2023/10/15 01:18:33;;;;;;;1.60;1.37;;;24.20;74.30;;;;;;5034702;28;20446;-84
2023/10/15 01:21:01;;;;;;;1.30;1.10;;;24.20;74.50;;;;;;5034762;28;20438;-87
2023/10/15 01:23:31;;;;;;;1.50;1.10;;;24.20;74.50;;;;;;5034595;28;20796;-86
2023/10/15 01:26:00;;;;;;;1.80;1.40;;;24.20;74.40;;;;;;5034599;28;20793;-84
2023/10/15 01:28:36;;;;;;;1.70;1.37;;;24.20;74.30;;;;;;5034439;28;20992;-84
2023/10/15 01:31:06;;;;;;;1.53;1.20;;;24.20;74.30;;;;;;5034419;28;20462;-84
2023/10/15 01:33:37;;;;;;;1.67;1.53;;;24.20;74.40;;;;;;5033979;28;20445;-84
2023/10/15 01:36:06;;;;;;;1.60;1.20;;;24.20;74.30;;;;;;5034339;28;20446;-84
2023/10/15 01:38:34;;;;;;;1.40;1.13;;;24.20;74.40;;;;;;5034303;28;20441;-84
2023/10/15 01:41:05;;;;;;;3.70;1.60;;;24.20;74.30;;;;;;5034403;28;20460;-84
2023/10/15 01:43:35;;;;;;;1.70;1.20;;;24.20;74.40;;;;;;5034178;28;20524;-84
2023/10/15 01:46:10;;;;;;;1.63;1.50;;;24.20;74.40;;;;;;5034217;28;20434;-84
2023/10/15 01:48:39;;;;;;;1.60;1.30;;;24.20;74.40;;;;;;5034134;28;20528;-83
2023/10/15 01:51:06;;;;;;;1.70;1.33;;;24.20;74.40;;;;;;5034036;28;20438;-84
2023/10/15 01:53:36;;;;;;;1.30;1.03;;;24.20;74.40;;;;;;5033893;28;20438;-84
2023/10/15 01:56:04;;;;;;;1.50;1.10;;;24.20;74.30;;;;;;5034007;28;20437;-84
2023/10/15 01:58:32;;;;;;;2.53;1.40;;;24.20;74.40;;;;;;5033815;28;20474;-84
2023/10/15 02:01:08;;;;;;;2.60;1.40;;;24.20;74.30;;;;;;5033751;28;20541;-86
2023/10/15 02:03:37;;;;;;;1.70;1.00;;;24.20;75.20;;;;;;5033847;28;20536;-84
2023/10/15 02:06:07;;;;;;;1.30;1.17;;;24.20;74.30;;;;;;5033678;28;20474;-84
2023/10/15 02:08:35;;;;;;;1.93;1.30;;;24.20;74.30;;;;;;5033778;28;20445;-85
2023/10/15 02:11:15;;;;;;;1.30;1.03;;;24.20;74.30;;;;;;5033756;28;20435;-87
2023/10/15 02:13:44;;;;;;;1.93;1.60;;;24.10;74.10;;;;;;5033680;28;20442;-84
2023/10/15 02:16:15;;;;;;;1.70;1.40;;;24.10;74.20;;;;;;5033446;28;20438;-84
2023/10/15 02:18:44;;;;;;;1.77;1.20;;;24.10;74.20;;;;;;5033250;28;20445;-86
2023/10/15 02:21:11;;;;;;;1.93;1.43;;;24.10;74.20;;;;;;5033628;28;20461;-86
2023/10/15 02:23:48;;;;;;;1.50;1.10;;;24.10;75.10;;;;;;5033528;28;20804;-85
2023/10/15 02:26:18;;;;;;;1.50;1.10;;;24.20;75.20;;;;;;5033558;28;20860;-86
2023/10/15 02:28:46;;;;;;;2.20;1.37;;;24.10;74.20;;;;;;5033781;28;20449;-87
2023/10/15 02:31:20;;;;;;;1.40;1.30;;;24.20;74.30;;;;;;5033252;28;20477;-85
2023/10/15 02:33:46;;;;;;;1.90;1.80;;;24.10;74.20;;;;;;5033394;28;20438;-86
2023/10/15 02:36:16;;;;;;;1.30;1.00;;;24.10;74.30;;;;;;5033348;28;20533;-83
2023/10/15 02:38:53;;;;;;;1.57;1.47;;;24.10;74.40;;;;;;5033272;28;20435;-83
2023/10/15 02:41:21;;;;;;;2.43;1.50;;;24.10;74.30;;;;;;5033305;28;20438;-86
2023/10/15 02:43:53;;;;;;;2.00;1.20;;;24.10;74.30;;;;;;5033173;28;21013;-86
2023/10/15 02:46:22;;;;;;;1.30;1.10;;;24.10;74.20;;;;;;5033162;28;20434;-84
2023/10/15 02:48:53;;;;;;;2.17;1.60;;;24.10;75.10;;;;;;5033150;28;20525;-83
2023/10/15 02:51:23;;;;;;;1.40;1.03;;;24.10;74.30;;;;;;5033317;28;20442;-84
2023/10/15 02:53:54;;;;;;;1.90;1.30;;;24.10;74.40;;;;;;5033122;28;20521;-83
2023/10/15 02:56:23;;;;;;;2.00;1.30;;;24.10;74.30;;;;;;5031451;28;20785;-83
2023/10/15 02:58:51;;;;;;;1.47;1.17;;;24.10;74.40;;;;;;5031060;28;20449;-84
2023/10/15 03:01:23;;;;;;;1.70;1.23;;;24.10;74.30;;;;;;5032944;28;20545;-83
2023/10/15 03:03:52;;;;;;;1.63;1.30;;;24.10;74.40;;;;;;5031760;28;20523;-84
2023/10/15 03:06:24;;;;;;;1.57;1.30;;;24.10;74.30;;;;;;5032044;28;20442;-83
2023/10/15 03:08:52;;;;;;;1.70;1.20;;;24.10;74.40;;;;;;5033004;28;20442;-84
2023/10/15 03:11:21;;;;;;;1.30;1.20;;;24.10;74.40;;;;;;5033010;28;20461;-87
2023/10/15 03:13:54;;;;;;;2.03;1.10;;;24.10;74.30;;;;;;5032880;28;20440;-87
2023/10/15 03:16:22;;;;;;;2.00;1.33;;;24.10;74.50;;;;;;5032995;28;20438;-87
2023/10/15 03:18:50;;;;;;;1.70;1.30;;;24.10;74.40;;;;;;5032985;28;20533;-83
2023/10/15 03:21:24;;;;;;;1.90;1.30;;;24.10;74.40;;;;;;5032952;28;20568;-83
2023/10/15 03:23:52;;;;;;;1.43;1.33;;;24.10;74.40;;;;;;5032299;28;20445;-83
2023/10/15 03:26:19;;;;;;;3.03;1.63;;;24.10;74.40;;;;;;5032664;28;20589;-83
2023/10/15 03:28:50;;;;;;;1.30;1.20;;;24.10;74.30;;;;;;5032759;28;20940;-84
2023/10/15 03:31:23;;;;;;;1.97;1.30;;;24.10;74.40;;;;;;5036690;28;20466;-83
2023/10/15 03:36:46;;;;;;;1.37;1.03;;;24.10;74.30;;;;;;5036758;28;20788;-84
2023/10/15 03:39:15;;;;;;;1.50;1.10;;;24.10;74.40;;;;;;5036613;28;20438;-83
2023/10/15 03:41:43;;;;;;;1.40;1.00;;;24.10;74.40;;;;;;5036504;28;20441;-87
2023/10/15 03:44:11;;;;;;;1.53;1.03;;;24.00;74.20;;;;;;5036357;28;20430;-84
2023/10/15 03:46:40;;;;;;;2.17;1.57;;;24.10;74.40;;;;;;5036368;28;20782;-84
2023/10/15 03:49:08;;;;;;;2.10;1.30;;;24.10;74.30;;;;;;5036396;28;20446;-83
2023/10/15 03:51:40;;;;;;;1.60;1.30;;;24.10;74.20;;;;;;5036337;28;20792;-83
2023/10/15 03:54:08;;;;;;;1.40;1.27;;;24.10;74.30;;;;;;5036403;28;20524;-84
2023/10/15 03:56:35;;;;;;;1.77;1.37;;;24.00;74.20;;;;;;5036004;28;20462;-83
2023/10/15 03:59:03;;;;;;;1.60;1.30;;;24.00;74.20;;;;;;5036177;28;20466;-83
2023/10/15 04:01:30;;;;;;;1.23;1.10;;;24.00;75.10;;;;;;5036062;28;20541;-84
2023/10/15 04:04:03;;;;;;;1.60;1.10;;;24.00;74.10;;;;;;5036067;28;20929;-84
2023/10/15 04:06:30;;;;;;;1.50;1.20;;;24.00;74.20;;;;;;5035966;28;20485;-84
2023/10/15 04:09:09;;;;;;;1.70;1.40;;;24.00;74.20;;;;;;5035994;28;20510;-83
2023/10/15 04:11:42;;;;;;;1.40;1.10;;;24.00;74.20;;;;;;5035892;28;20430;-83
2023/10/15 04:14:13;;;;;;;1.67;1.50;;;24.00;74.20;;;;;;5035916;28;20489;-84
2023/10/15 04:16:41;;;;;;;1.40;0.90;;;24.00;74.20;;;;;;5035924;28;20963;-84
2023/10/15 04:19:09;;;;;;;1.27;1.03;;;24.00;74.20;;;;;;5035927;28;20885;-83
2023/10/15 04:21:38;;;;;;;1.50;1.20;;;24.00;74.20;;;;;;5035750;28;20940;-84
2023/10/15 04:24:06;;;;;;;1.20;0.97;;;24.00;74.20;;;;;;5035751;28;20438;-85
2023/10/15 04:26:35;;;;;;;2.60;1.07;;;24.00;74.30;;;;;;5035583;28;20997;-87
2023/10/15 04:29:16;;;;;;;1.70;1.30;;;24.00;74.20;;;;;;5035704;28;20862;-84
2023/10/15 04:31:46;;;;;;;1.73;1.50;;;24.00;74.30;;;;;;5035431;28;20540;-84
2023/10/15 04:34:18;;;;;;;1.30;1.20;;;24.00;74.20;;;;;;5035250;28;20454;-83
2023/10/15 04:36:45;;;;;;;1.50;1.10;;;24.00;74.20;;;;;;5035426;28;20460;-85
2023/10/15 04:39:16;;;;;;;1.40;1.13;;;24.00;75.10;;;;;;5035367;28;20977;-84
2023/10/15 04:41:42;;;;;;;1.33;1.10;;;24.00;74.20;;;;;;5035152;28;20438;-86
2023/10/15 04:44:20;;;;;;;1.60;1.40;;;24.00;74.20;;;;;;5035510;28;20426;-84
2023/10/15 04:46:47;;;;;;;1.80;1.33;;;24.00;74.20;;;;;;5035370;28;20493;-87
2023/10/15 04:49:17;;;;;;;2.33;1.30;;;24.00;74.20;;;;;;5035244;28;20533;-84
2023/10/15 04:51:45;;;;;;;2.10;1.60;;;24.00;74.20;;;;;;5035197;28;20525;-83
2023/10/15 04:54:12;;;;;;;2.00;1.63;;;24.00;74.30;;;;;;5035155;28;20819;-84
2023/10/15 04:56:39;;;;;;;1.40;1.20;;;24.00;75.10;;;;;;5034833;28;20521;-83
2023/10/15 04:59:06;;;;;;;1.77;1.10;;;24.00;74.20;;;;;;5035163;28;20936;-84
2023/10/15 05:01:34;;;;;;;1.50;1.10;;;24.00;74.20;;;;;;5034892;28;20545;-86
2023/10/15 05:04:01;;;;;;;1.60;1.20;;;23.90;74.10;;;;;;5035052;28;20454;-86
2023/10/15 05:06:29;;;;;;;1.63;1.10;;;24.00;74.20;;;;;;5034793;28;20486;-83
2023/10/15 05:08:57;;;;;;;1.73;1.20;;;23.90;74.10;;;;;;5034896;28;20434;-83
2023/10/15 05:11:24;;;;;;;1.53;1.43;;;24.00;74.20;;;;;;5034947;28;20438;-84
2023/10/15 05:13:52;;;;;;;1.73;1.10;;;24.00;74.20;;;;;;5034764;28;20434;-83
2023/10/15 05:16:20;;;;;;;1.50;1.40;;;24.00;74.20;;;;;;5034758;28;20795;-83
2023/10/15 05:18:48;;;;;;;1.40;1.30;;;24.00;74.20;;;;;;5034770;28;20450;-87
2023/10/15 05:21:15;;;;;;;1.23;1.00;;;24.00;74.20;;;;;;5034614;28;20442;-84
2023/10/15 05:23:43;;;;;;;1.70;1.10;;;23.90;74.20;;;;;;5034747;28;20517;-87
2023/10/15 05:26:12;;;;;;;1.57;1.10;;;23.90;74.10;;;;;;5034537;28;20521;-84
2023/10/15 05:28:39;;;;;;;1.20;0.93;;;23.90;74.00;;;;;;5034596;28;20796;-84
2023/10/15 05:31:05;;;;;;;1.23;1.10;;;23.90;74.00;;;;;;5034386;28;20458;-84
2023/10/15 05:33:33;;;;;;;1.77;1.20;;;23.90;74.00;;;;;;5034200;28;20521;-84
2023/10/15 05:35:59;;;;;;;1.30;1.10;;;23.90;74.10;;;;;;5034354;28;20442;-85
2023/10/15 05:38:27;;;;;;;1.67;1.20;;;23.90;74.00;;;;;;5034418;28;20801;-84
2023/10/15 05:40:58;;;;;;;1.67;0.90;;;23.90;74.10;;;;;;5034421;28;20860;-84
2023/10/15 05:43:26;;;;;;;1.50;1.10;;;23.90;74.10;;;;;;5034335;28;20453;-84
2023/10/15 05:45:53;;;;;;;1.37;1.27;;;23.90;74.10;;;;;;5034143;28;20486;-83
2023/10/15 05:48:20;;;;;;;1.60;1.40;;;23.90;74.10;;;;;;5034157;28;20533;-83
2023/10/15 05:50:49;;;;;;;1.90;1.30;;;23.90;74.00;;;;;;5034057;28;20972;-83
2023/10/15 05:53:16;;;;;;;1.60;1.20;;;23.90;74.10;;;;;;5033362;28;20941;-86
2023/10/15 05:55:43;;;;;;;2.23;1.40;;;23.90;74.00;;;;;;5033967;28;20809;-87
2023/10/15 05:58:11;;;;;;;1.83;1.13;;;23.90;74.00;;;;;;5033962;28;20565;-83
2023/10/15 06:00:40;;;;;;;1.83;1.30;;;23.90;74.10;;;;;;5033845;28;20549;-84
2023/10/15 06:03:08;;;;;;;1.30;1.00;;;23.90;74.00;;;;;;5033881;28;20447;-83
2023/10/15 06:05:35;;;;;;;1.43;1.30;;;23.90;74.10;;;;;;5033685;28;20847;-83
2023/10/15 06:08:04;;;;;;;1.30;1.10;;;23.90;74.10;;;;;;5033776;28;20847;-83
2023/10/15 06:10:32;;;;;;;1.37;1.20;;;23.90;74.10;;;;;;5033820;28;20470;-84
2023/10/15 06:13:00;;;;;;;1.90;1.27;;;23.80;74.10;;;;;;5033637;28;20447;-84
2023/10/15 06:15:29;;;;;;;1.50;1.10;;;23.90;74.00;;;;;;5033671;28;20442;-84
2023/10/15 06:17:57;;;;;;;1.27;1.10;;;23.80;74.00;;;;;;5033691;28;21002;-86
2023/10/15 06:20:24;;;;;;;1.37;0.90;;;23.90;74.10;;;;;;5033646;28;20541;-83
2023/10/15 06:22:55;;;;;;;1.50;1.13;;;23.90;74.10;;;;;;5033533;28;20437;-84
2023/10/15 06:25:23;;;;;;;1.60;1.17;;;23.90;74.20;;;;;;5033404;28;20478;-84
2023/10/15 06:27:50;;;;;;;1.20;1.10;;;23.80;74.00;;;;;;5033529;28;21226;-84
2023/10/15 06:30:17;;;;;;;1.63;1.00;;;23.80;74.00;;;;;;5033320;28;20516;-83
2023/10/15 06:32:47;;;;;;;1.40;1.17;;;23.80;73.90;;;;;;5033360;28;20441;-86
2023/10/15 06:35:18;;;;;;;1.23;0.93;;;23.80;74.80;;;;;;5033480;28;20434;-84
2023/10/15 06:37:45;;;;;;;2.17;1.10;;;23.80;73.90;;;;;;5033386;28;20921;-87
2023/10/15 06:40:13;;;;;;;1.20;1.10;;;23.80;73.90;;;;;;5033349;28;20436;-86
2023/10/15 06:42:40;;;;;;;1.70;1.23;;;23.80;74.00;;;;;;5033288;28;20481;-83
2023/10/15 06:45:08;;;;;;;1.57;1.20;;;23.80;74.00;;;;;;5033143;28;20437;-83
2023/10/15 06:47:35;;;;;;;1.40;1.13;;;23.80;73.90;;;;;;5032733;28;20434;-85
2023/10/15 06:50:07;;;;;;;1.40;1.10;;;23.80;74.00;;;;;;5033246;28;20442;-83
2023/10/15 10:11:02;;;;;;;1.20;0.80;;;24.10;70.80;;;;;;5032871;28;20543;-83
2023/10/15 10:14:03;;;;;;;1.20;0.90;;;24.10;70.90;;;;;;5033466;28;20516;-83
2023/10/15 10:16:31;;;;;;;1.10;0.80;;;24.20;71.40;;;;;;5033786;28;20533;-83
2023/10/15 10:18:58;;;;;;;1.50;0.80;;;24.20;71.80;;;;;;5033698;28;20465;-83
2023/10/15 10:21:29;;;;;;;1.50;1.03;;;24.30;71.90;;;;;;5033678;28;20442;-86
2023/10/15 10:23:58;;;;;;;1.27;0.97;;;24.30;72.00;;;;;;5033594;28;20444;-83
2023/10/15 10:26:28;;;;;;;1.10;0.93;;;24.30;72.20;;;;;;5033455;28;20488;-83
2023/10/15 10:28:56;;;;;;;1.47;0.90;;;24.30;72.20;;;;;;5033847;28;20441;-83
2023/10/15 10:31:23;;;;;;;1.20;0.87;;;24.30;72.00;;;;;;5033534;28;20549;-83
2023/10/15 10:33:53;;;;;;;1.60;1.03;;;24.30;72.10;;;;;;5033327;28;20469;-83
2023/10/15 10:36:22;;;;;;;1.10;0.80;;;24.30;72.40;;;;;;5033428;28;20541;-83
2023/10/15 10:39:00;;;;;;;3.07;0.90;;;24.30;72.80;;;;;;5033053;28;20441;-83
2023/10/15 10:41:38;;;;;;;1.10;0.80;;;24.30;72.90;;;;;;5033315;28;20861;-83
2023/10/15 10:44:05;;;;;;;1.20;0.90;;;24.40;73.10;;;;;;5033160;28;20430;-85
2023/10/15 10:46:41;;;;;;;1.97;0.83;;;24.40;73.00;;;;;;5033165;28;20486;-83
2023/10/15 10:49:13;;;;;;;1.00;0.80;;;24.40;73.10;;;;;;5033267;28;20448;-83
2023/10/15 10:51:40;;;;;;;1.00;0.70;;;24.50;73.20;;;;;;5033151;28;20457;-86
2023/10/15 10:54:31;;;;;;;1.20;0.80;;;24.50;73.00;;;;;;5033115;28;20987;-83
2023/10/15 10:57:02;;;;;;;1.37;0.80;;;24.60;73.10;;;;;;5013600;28;20454;-83
2023/10/15 10:59:30;;;;;;;1.10;0.87;;;24.60;73.10;;;;;;5033218;28;20434;-85
2023/10/15 11:01:57;;;;;;;1.20;0.80;;;24.70;73.30;;;;;;5033002;28;20972;-83
2023/10/15 11:04:25;;;;;;;1.10;0.80;;;24.70;73.20;;;;;;5032977;28;20526;-83
2023/10/15 11:06:51;;;;;;;1.73;0.80;;;24.80;73.10;;;;;;5032992;28;20514;-83
2023/10/15 11:09:20;;;;;;;1.10;0.90;;;24.80;73.80;;;;;;5032824;28;20505;-83
2023/10/15 11:11:48;;;;;;;1.20;0.90;;;24.80;73.00;;;;;;5032915;28;20450;-83
2023/10/15 11:14:18;;;;;;;1.20;1.10;;;24.80;72.90;;;;;;5032879;28;20443;-83
2023/10/15 11:16:45;;;;;;;1.30;0.90;;;24.80;73.10;;;;;;5032945;28;20478;-83
2023/10/15 11:19:17;;;;;;;1.10;0.70;;;24.80;73.20;;;;;;5032826;28;20963;-83
2023/10/15 11:21:43;;;;;;;1.10;0.90;;;24.80;73.30;;;;;;5032942;28;20537;-86
2023/10/15 11:24:11;;;;;;;1.20;1.07;;;24.80;73.20;;;;;;5032851;28;20439;-83
2023/10/15 11:26:41;;;;;;;1.40;0.90;;;24.80;73.20;;;;;;5032790;28;20481;-83
2023/10/15 11:29:09;;;;;;;1.97;1.00;;;24.80;73.10;;;;;;5032976;28;20856;-86
2023/10/15 11:31:37;;;;;;;1.10;0.80;;;24.80;73.30;;;;;;5032634;28;20446;-83
2023/10/15 11:34:05;;;;;;;1.20;0.90;;;24.80;73.40;;;;;;5032763;28;20436;-83
2023/10/15 11:36:35;;;;;;;1.40;0.80;;;24.80;73.10;;;;;;5032692;28;20442;-83
2023/10/15 11:39:08;;;;;;;1.00;0.70;;;24.80;73.20;;;;;;5032806;28;20438;-83
2023/10/15 11:41:36;;;;;;;1.00;0.70;;;25.00;73.40;;;;;;5032800;28;20500;-87
2023/10/15 11:44:06;;;;;;;1.20;0.80;;;24.90;73.20;;;;;;5032685;28;20445;-86
2023/10/15 11:46:33;;;;;;;1.10;0.90;;;24.90;73.20;;;;;;5032578;28;20852;-83
2023/10/15 11:49:02;;;;;;;1.10;0.80;;;25.00;73.20;;;;;;5032746;28;20512;-83
2023/10/15 11:51:30;;;;;;;1.53;0.90;;;25.00;73.30;;;;;;5035204;28;20468;-83
2023/10/15 11:54:00;;;;;;;1.20;0.87;;;24.90;73.30;;;;;;5036219;28;20434;-86
2023/10/15 11:56:29;;;;;;;1.43;0.80;;;24.90;73.20;;;;;;5036433;28;20442;-84
2023/10/15 11:58:57;;;;;;;1.20;0.80;;;25.00;73.20;;;;;;5036327;28;20449;-83
2023/10/15 12:01:24;;;;;;;3.47;0.90;;;25.00;73.20;;;;;;5036371;28;20466;-83
2023/10/15 12:03:51;;;;;;;1.00;0.70;;;24.90;73.20;;;;;;5036127;28;20921;-83
2023/10/15 12:06:19;;;;;;;1.67;0.77;;;24.90;73.20;;;;;;5036124;28;20489;-83
2023/10/15 12:08:46;;;;;;;2.03;0.80;;;24.90;73.30;;;;;;5036208;28;20925;-86
2023/10/15 12:11:14;;;;;;;1.30;0.80;;;24.90;73.30;;;;;;5035927;28;20829;-87
2023/10/15 12:13:43;;;;;;;1.47;0.67;;;24.90;73.30;;;;;;5035867;28;20473;-87
2023/10/15 12:16:11;;;;;;;1.10;0.70;;;24.80;73.10;;;;;;5035960;28;20445;-86
2023/10/15 12:18:39;;;;;;;1.00;0.67;;;24.90;73.30;;;;;;5035921;28;20917;-83
2023/10/15 12:21:06;;;;;;;1.17;0.70;;;24.80;73.30;;;;;;5035822;28;20438;-83
2023/10/15 12:23:34;;;;;;;1.33;0.90;;;24.90;73.30;;;;;;5035756;28;20446;-83
2023/10/15 12:26:02;;;;;;;1.20;0.80;;;24.80;73.20;;;;;;5035670;28;20435;-83
2023/10/15 12:28:29;;;;;;;1.30;0.90;;;24.80;73.20;;;;;;5035697;28;20435;-84
2023/10/15 12:30:57;;;;;;;1.10;0.63;;;24.80;73.20;;;;;;5035743;28;20549;-83
2023/10/15 12:33:23;;;;;;;2.57;0.90;;;24.80;73.20;;;;;;5035514;28;20454;-83
2023/10/15 12:35:51;;;;;;;1.10;0.80;;;24.80;73.30;;;;;;5035703;28;20543;-83
2023/10/15 12:38:26;;;;;;;1.10;0.60;;;24.80;73.30;;;;;;5035469;28;20446;-83
2023/10/15 12:40:56;;;;;;;1.27;0.80;;;24.80;73.20;;;;;;5035600;28;20537;-83
2023/10/15 12:43:23;;;;;;;1.27;0.90;;;24.80;73.30;;;;;;5035384;28;20529;-83
2023/10/15 12:45:52;;;;;;;1.00;0.70;;;24.80;73.30;;;;;;5035412;28;20546;-83
2023/10/15 12:48:19;;;;;;;1.30;0.70;;;24.80;73.40;;;;;;5035309;28;20522;-83
2023/10/15 12:50:47;;;;;;;1.10;0.80;;;24.80;73.30;;;;;;5035439;28;20438;-83
2023/10/15 12:53:15;;;;;;;1.00;0.70;;;24.80;73.40;;;;;;5035150;28;20439;-87
2023/10/15 12:55:42;;;;;;;1.20;0.80;;;24.80;73.40;;;;;;5035168;28;21001;-83
2023/10/15 12:58:11;;;;;;;1.10;0.90;;;24.90;73.30;;;;;;5035172;28;20442;-83
2023/10/15 13:00:43;;;;;;;1.60;0.90;;;24.90;73.20;;;;;;5035060;28;20466;-83
2023/10/15 13:03:11;;;;;;;1.53;0.90;;;25.00;73.20;;;;;;5035025;28;20946;-83
2023/10/15 13:05:38;;;;;;;1.30;0.90;;;24.90;73.10;;;;;;5034938;28;20530;-83
2023/10/15 13:08:05;;;;;;;1.13;0.80;;;24.90;73.00;;;;;;5034899;28;20512;-83
2023/10/15 13:10:32;;;;;;;1.00;0.70;;;25.00;73.10;;;;;;5034847;28;20485;-83
2023/10/15 13:12:59;;;;;;;1.10;0.80;;;24.90;73.00;;;;;;5034765;28;20445;-83
2023/10/15 13:15:27;;;;;;;1.10;0.80;;;24.90;73.00;;;;;;5034887;28;20438;-83
2023/10/15 13:17:55;;;;;;;1.00;0.80;;;24.90;73.00;;;;;;5034857;28;20441;-83
2023/10/15 13:20:23;;;;;;;1.10;0.80;;;25.00;73.90;;;;;;5034731;28;20454;-83
2023/10/15 13:22:50;;;;;;;1.00;0.80;;;24.90;73.80;;;;;;5034691;28;20520;-83
2023/10/15 13:25:17;;;;;;;1.20;0.80;;;24.90;72.90;;;;;;5034591;28;20438;-83
2023/10/15 13:27:44;;;;;;;1.10;0.70;;;24.90;72.90;;;;;;5034505;28;20500;-83
2023/10/15 13:30:15;;;;;;;1.50;0.70;;;24.90;72.90;;;;;;5034493;28;20465;-83
2023/10/15 13:32:43;;;;;;;1.10;0.80;;;24.90;72.90;;;;;;5034442;28;20462;-82
2023/10/15 13:35:11;;;;;;;1.00;0.70;;;24.90;72.90;;;;;;5034555;28;20500;-83
2023/10/15 13:37:38;;;;;;;1.10;0.70;;;24.90;72.90;;;;;;5034374;28;20433;-83
2023/10/15 13:40:09;;;;;;;1.10;0.70;;;24.90;72.90;;;;;;5034434;28;20434;-83
2023/10/15 13:42:36;;;;;;;1.10;0.80;;;24.90;72.90;;;;;;5034370;28;20440;-82
2023/10/15 13:45:04;;;;;;;1.40;0.90;;;24.80;72.80;;;;;;5034235;28;20460;-84
2023/10/15 13:47:32;;;;;;;1.10;0.70;;;24.80;72.80;;;;;;5034236;28;20486;-83
2023/10/15 13:50:00;;;;;;;1.10;0.80;;;24.80;72.80;;;;;;5034170;28;20445;-83
2023/10/15 13:52:27;;;;;;;1.37;0.70;;;24.80;72.80;;;;;;5034051;28;20508;-83
2023/10/15 13:54:54;;;;;;;1.03;0.73;;;24.80;72.80;;;;;;5033943;28;20846;-83
2023/10/15 13:57:20;;;;;;;1.10;0.80;;;24.80;72.80;;;;;;5034017;28;20449;-83
2023/10/15 13:59:47;;;;;;;1.10;0.87;;;24.80;72.80;;;;;;5033954;28;20953;-83
2023/10/15 14:02:15;;;;;;;1.37;0.80;;;24.80;72.80;;;;;;5034022;28;20439;-83
2023/10/15 14:04:43;;;;;;;1.10;0.90;;;24.80;72.80;;;;;;5033780;28;20450;-83
2023/10/15 14:07:11;;;;;;;1.00;0.70;;;24.80;72.80;;;;;;5033807;28;20569;-83
2023/10/15 14:09:38;;;;;;;1.00;0.70;;;24.80;72.80;;;;;;5033662;28;21064;-83
2023/10/15 14:12:06;;;;;;;1.40;0.60;;;24.70;72.70;;;;;;5033603;28;20453;-83
2023/10/15 14:14:33;;;;;;;1.57;0.63;;;24.70;72.60;;;;;;5033239;28;20442;-84
2023/10/15 14:17:00;;;;;;;1.40;0.90;;;24.70;72.70;;;;;;5033758;28;20545;-83
2023/10/15 14:19:29;;;;;;;1.00;0.70;;;24.70;72.70;;;;;;5033568;28;20434;-83
2023/10/15 14:21:56;;;;;;;1.10;0.77;;;24.70;72.70;;;;;;5033662;28;20442;-83
2023/10/15 14:24:24;;;;;;;1.00;0.80;;;24.70;72.60;;;;;;5033483;28;20442;-83
2023/10/15 14:26:51;;;;;;;1.10;0.67;;;24.70;72.70;;;;;;5033502;28;20434;-83
2023/10/15 14:29:18;;;;;;;1.00;0.70;;;24.70;72.70;;;;;;5033517;28;20996;-83
2023/10/15 14:31:45;;;;;;;1.13;0.90;;;24.70;72.70;;;;;;5015686;28;20992;-83
2023/10/15 14:34:12;;;;;;;1.20;0.80;;;24.70;72.70;;;;;;5033420;28;20804;-83
2023/10/15 14:36:39;;;;;;;1.10;0.70;;;24.70;72.70;;;;;;5033298;28;20460;-83
2023/10/15 14:39:07;;;;;;;1.00;0.63;;;24.70;72.80;;;;;;5033406;28;20442;-83
2023/10/15 14:41:36;;;;;;;1.10;0.80;;;24.70;72.80;;;;;;5033319;28;20481;-83
2023/10/15 14:44:03;;;;;;;1.23;0.80;;;24.60;72.70;;;;;;5033235;28;20517;-84
2023/10/15 14:46:29;;;;;;;1.03;0.80;;;24.60;72.50;;;;;;5033201;28;20434;-83
2023/10/15 14:48:56;;;;;;;1.10;0.83;;;24.60;72.50;;;;;;5033153;28;20512;-83
2023/10/15 14:51:23;;;;;;;1.10;0.87;;;24.60;72.50;;;;;;5033053;28;20438;-84
2023/10/15 14:53:50;;;;;;;1.10;0.70;;;24.60;72.50;;;;;;5032988;28;20442;-83
2023/10/15 14:56:17;;;;;;;1.20;0.70;;;24.60;72.60;;;;;;5033219;28;20777;-83
2023/10/15 14:58:45;;;;;;;1.17;0.77;;;24.60;72.70;;;;;;5033059;28;20434;-83
2023/10/15 15:01:12;;;;;;;1.17;0.97;;;24.60;72.50;;;;;;5033056;28;20549;-83
2023/10/15 15:03:39;;;;;;;1.00;0.80;;;24.60;72.40;;;;;;5033100;28;20869;-83
2023/10/15 15:06:09;;;;;;;1.10;0.73;;;24.60;72.40;;;;;;5033115;28;20985;-83
2023/10/15 15:08:36;;;;;;;1.10;0.70;;;24.50;72.20;;;;;;5033046;28;20512;-83
2023/10/15 15:11:05;;;;;;;1.10;0.70;;;24.50;72.20;;;;;;5032857;28;20476;-83
2023/10/15 15:13:32;;;;;;;1.30;0.70;;;24.50;72.00;;;;;;5032839;28;20438;-84
2023/10/15 15:16:00;;;;;;;1.20;1.03;;;24.50;71.60;;;;;;5032869;28;20434;-83
2023/10/15 15:18:27;;;;;;;1.03;0.73;;;24.50;71.70;;;;;;5032942;28;20446;-83
2023/10/15 15:21:01;;;;;;;3.93;1.40;;;24.50;71.60;;;;;;5032860;28;20518;-83
2023/10/15 15:23:29;;;;;;;1.43;0.87;;;24.50;71.50;;;;;;5032826;28;20956;-83
2023/10/15 15:26:00;;;;;;;1.63;0.80;;;24.50;71.50;;;;;;5034642;28;20445;-84
2023/10/15 15:28:27;;;;;;;1.30;0.83;;;24.50;71.50;;;;;;5036819;28;20848;-83
2023/10/15 15:30:54;;;;;;;1.00;0.70;;;24.50;71.40;;;;;;5036824;28;20458;-83
2023/10/15 15:33:23;;;;;;;1.10;0.80;;;24.50;71.40;;;;;;5036695;28;20442;-83
2023/10/15 15:35:50;;;;;;;1.00;0.70;;;24.50;71.40;;;;;;5036880;28;20446;-84
2023/10/15 15:38:17;;;;;;;1.07;0.77;;;24.50;71.50;;;;;;5036587;28;20442;-83
2023/10/15 15:40:51;;;;;;;1.17;0.77;;;24.50;71.60;;;;;;5036754;28;20514;-84
2023/10/15 15:43:18;;;;;;;1.00;0.70;;;24.50;71.70;;;;;;5036697;28;20441;-83
2023/10/15 15:45:45;;;;;;;1.00;0.70;;;24.50;71.60;;;;;;5036526;28;20493;-83
2023/10/15 15:48:12;;;;;;;1.43;0.80;;;24.40;71.60;;;;;;5036417;28;20485;-83
2023/10/15 15:50:40;;;;;;;1.10;0.73;;;24.50;71.70;;;;;;5036491;28;20438;-83
2023/10/15 15:53:07;;;;;;;1.20;0.73;;;24.50;71.60;;;;;;5036379;28;20527;-83
2023/10/15 15:55:35;;;;;;;1.30;0.70;;;24.40;72.40;;;;;;5036328;28;20444;-83
2023/10/15 15:58:02;;;;;;;1.10;0.80;;;24.60;71.70;;;;;;5036355;28;20457;-84
2023/10/15 16:00:32;;;;;;;1.23;0.73;;;24.40;71.50;;;;;;5036218;28;20469;-83
2023/10/15 16:02:59;;;;;;;1.20;0.70;;;24.40;71.40;;;;;;5019105;28;21122;-84
2023/10/15 16:05:26;;;;;;;1.77;0.90;;;24.40;71.30;;;;;;5036090;28;20446;-83
2023/10/15 16:07:58;;;;;;;1.00;0.60;;;24.40;71.30;;;;;;5036072;28;20481;-83
2023/10/15 16:10:25;;;;;;;1.17;0.60;;;24.50;71.40;;;;;;5035866;28;20478;-84
2023/10/15 16:12:52;;;;;;;1.17;0.80;;;24.40;71.30;;;;;;5035923;28;20797;-84
2023/10/15 16:15:18;;;;;;;1.70;0.70;;;24.40;71.20;;;;;;5035879;28;20446;-83
2023/10/15 16:17:45;;;;;;;1.67;0.80;;;24.40;71.20;;;;;;5035931;28;20449;-83